Time;durP1;ratioP1;P1;durP2;ratioP2;P2;SDS_P1;SDS_P2;PMS_P1;PMS_P2;Temp;Humidity;BMP_temperature;BMP_pressure;BME280_temperature;BME280_humidity;BME280_pressure;Samples;Min_cycle;Max_cycle;Signal;HPM_P1;HPM_P2
2023/03/21 00:02:05;;;;;;;5.55;2.78;;;;;;;;;;5009193;28;20482;-63
2023/03/21 00:04:32;;;;;;;4.05;2.88;;;;;;;;;;5008367;28;20048;-63
2023/03/21 00:06:58;;;;;;;4.95;2.85;;;;;;;;;;5008808;28;20061;-63
2023/03/21 00:09:25;;;;;;;6.28;3.03;;;;;;;;;;5008787;28;20407;-62
2023/03/21 00:11:52;;;;;;;5.70;2.72;;;;;;;;;;5009307;28;20061;-62
2023/03/21 00:14:22;;;;;;;3.63;2.85;;;;;;;;;;5008758;28;20054;-63
2023/03/21 00:16:49;;;;;;;5.43;3.08;;;;;;;;;;5009275;28;20499;-63
2023/03/21 00:19:16;;;;;;;6.65;3.85;;;;;;;;;;5008090;28;20556;-63
2023/03/21 00:21:44;;;;;;;5.72;3.08;;;;;;;;;;5009053;28;20050;-63
2023/03/21 00:24:11;;;;;;;5.43;3.08;;;;;;;;;;5008496;28;20479;-63
2023/03/21 00:26:38;;;;;;;4.60;3.15;;;;;;;;;;5008839;28;20042;-63
2023/03/21 00:29:04;;;;;;;6.57;3.30;;;;;;;;;;5008232;28;20461;-63
2023/03/21 00:31:32;;;;;;;8.55;2.97;;;;;;;;;;5007499;28;20212;-63
2023/03/21 00:33:59;;;;;;;5.38;3.38;;;;;;;;;;5008380;28;20046;-63
2023/03/21 00:36:26;;;;;;;6.43;3.45;;;;;;;;;;5008688;28;20054;-63
2023/03/21 00:38:53;;;;;;;5.10;3.17;;;;;;;;;;5008253;28;20042;-63
2023/03/21 00:41:19;;;;;;;4.80;3.10;;;;;;;;;;5008531;28;20505;-63
2023/03/21 00:43:46;;;;;;;8.30;4.13;;;;;;;;;;5008348;28;20068;-63
2023/03/21 00:46:13;;;;;;;8.07;3.88;;;;;;;;;;5007999;28;20072;-63
2023/03/21 00:48:40;;;;;;;8.80;4.03;;;;;;;;;;5008168;28;20068;-63
2023/03/21 00:51:14;;;;;;;4.53;3.13;;;;;;;;;;5008251;28;20050;-63
2023/03/21 00:53:40;;;;;;;7.60;3.17;;;;;;;;;;5008237;28;20049;-63
2023/03/21 00:56:08;;;;;;;4.95;3.40;;;;;;;;;;5008252;28;20133;-63
2023/03/21 00:58:34;;;;;;;4.88;3.25;;;;;;;;;;5007792;28;20049;-63
2023/03/21 01:01:01;;;;;;;5.43;3.90;;;;;;;;;;5007646;28;20050;-63
2023/03/21 01:03:28;;;;;;;4.40;3.22;;;;;;;;;;5008369;28;20491;-63
2023/03/21 01:06:05;;;;;;;6.75;3.60;;;;;;;;;;5008082;28;20392;-63
2023/03/21 01:08:33;;;;;;;5.32;3.63;;;;;;;;;;5007634;28;20088;-62
2023/03/21 01:11:05;;;;;;;6.55;3.63;;;;;;;;;;5007753;28;20053;-63
2023/03/21 01:13:32;;;;;;;8.38;3.80;;;;;;;;;;5007786;28;20491;-62
2023/03/21 01:15:59;;;;;;;8.75;3.53;;;;;;;;;;5007967;28;20411;-63
2023/03/21 01:18:28;;;;;;;7.97;3.75;;;;;;;;;;5007932;28;20414;-63
2023/03/21 01:20:58;;;;;;;7.15;4.00;;;;;;;;;;5008004;28;20072;-63
2023/03/21 01:23:27;;;;;;;6.45;3.55;;;;;;;;;;5007939;28;20141;-63
2023/03/21 01:25:55;;;;;;;5.43;3.53;;;;;;;;;;5007371;28;20061;-62
2023/03/21 01:28:22;;;;;;;7.63;4.07;;;;;;;;;;5007597;28;20050;-63
2023/03/21 01:30:51;;;;;;;7.20;3.97;;;;;;;;;;5007560;28;20411;-63
2023/03/21 01:33:19;;;;;;;6.40;3.42;;;;;;;;;;5007630;28;20050;-63
2023/03/21 01:35:46;;;;;;;6.30;3.67;;;;;;;;;;5007406;28;20396;-63
2023/03/21 01:38:14;;;;;;;5.90;3.42;;;;;;;;;;5007295;28;20079;-62
2023/03/21 01:40:41;;;;;;;6.78;3.60;;;;;;;;;;5007465;28;20811;-63
2023/03/21 01:43:20;;;;;;;7.78;3.67;;;;;;;;;;5007280;28;20495;-63
2023/03/21 01:46:25;;;;;;;5.15;3.15;;;;;;;;;;5007390;28;20049;-62
2023/03/21 01:48:56;;;;;;;5.53;3.30;;;;;;;;;;5007592;28;20049;-63
2023/03/21 01:51:24;;;;;;;6.38;3.45;;;;;;;;;;5007303;28;20061;-63
2023/03/21 01:53:52;;;;;;;3.70;3.17;;;;;;;;;;5007414;28;20042;-63
2023/03/21 01:56:24;;;;;;;6.13;3.40;;;;;;;;;;5007231;28;20050;-63
2023/03/21 01:58:54;;;;;;;7.53;3.70;;;;;;;;;;5007126;28;20510;-63
2023/03/21 02:01:21;;;;;;;8.73;3.80;;;;;;;;;;5006757;28;20050;-63
2023/03/21 02:03:52;;;;;;;5.70;3.63;;;;;;;;;;5007534;28;20099;-63
2023/03/21 02:06:34;;;;;;;6.65;3.72;;;;;;;;;;5007369;28;20749;-63
2023/03/21 02:09:07;;;;;;;9.15;4.00;;;;;;;;;;5006977;28;20050;-63
2023/03/21 02:11:35;;;;;;;6.28;3.65;;;;;;;;;;5007009;28;20050;-63
2023/03/21 02:14:02;;;;;;;8.88;3.92;;;;;;;;;;5007126;28;20061;-63
2023/03/21 02:16:41;;;;;;;8.50;3.70;;;;;;;;;;5007118;28;20140;-62
2023/03/21 02:19:31;;;;;;;7.40;3.80;;;;;;;;;;5006813;28;20050;-62
2023/03/21 02:22:24;;;;;;;6.57;3.42;;;;;;;;;;5007447;28;20061;-63
2023/03/21 02:25:35;;;;;;;5.82;3.85;;;;;;;;;;5006993;28;20175;-63
2023/03/21 02:28:09;;;;;;;6.05;3.83;;;;;;;;;;5007138;28;20053;-63
2023/03/21 02:31:05;;;;;;;5.03;3.00;;;;;;;;;;5007028;28;20046;-63
2023/03/21 02:33:52;;;;;;;7.13;3.35;;;;;;;;;;5006730;28;20050;-63
2023/03/21 02:36:40;;;;;;;7.03;3.65;;;;;;;;;;5006853;28;20057;-62
2023/03/21 02:39:14;;;;;;;9.60;3.80;;;;;;;;;;5006487;28;20052;-63
2023/03/21 02:41:48;;;;;;;6.22;3.10;;;;;;;;;;5007126;28;20145;-63
2023/03/21 02:44:20;;;;;;;5.60;3.08;;;;;;;;;;5006466;28;20050;-63
2023/03/21 02:46:53;;;;;;;5.05;3.35;;;;;;;;;;5006927;28;20050;-62
2023/03/21 02:49:24;;;;;;;7.97;3.80;;;;;;;;;;5006338;28;20103;-63
2023/03/21 02:51:51;;;;;;;5.90;2.85;;;;;;;;;;5007145;28;20407;-63
2023/03/21 02:54:23;;;;;;;8.32;3.45;;;;;;;;;;5006382;28;20091;-63
2023/03/21 02:56:51;;;;;;;6.25;4.07;;;;;;;;;;5009880;28;20065;-63
2023/03/21 02:59:21;;;;;;;5.65;3.30;;;;;;;;;;5009702;28;20049;-63
2023/03/21 03:01:47;;;;;;;5.85;3.17;;;;;;;;;;5009721;28;20050;-63
2023/03/21 03:04:21;;;;;;;4.95;3.42;;;;;;;;;;5009821;28;20060;-63
2023/03/21 03:07:02;;;;;;;6.53;3.80;;;;;;;;;;5010135;28;20411;-63
2023/03/21 03:09:39;;;;;;;9.18;3.85;;;;;;;;;;5009532;28;20095;-63
2023/03/21 03:12:18;;;;;;;6.03;3.85;;;;;;;;;;5009910;28;20054;-63
2023/03/21 03:14:53;;;;;;;5.10;3.40;;;;;;;;;;5009582;28;20054;-63
2023/03/21 03:17:27;;;;;;;4.78;3.33;;;;;;;;;;5009617;28;20053;-63
2023/03/21 03:20:18;;;;;;;8.38;3.92;;;;;;;;;;5009323;28;20054;-63
2023/03/21 03:22:53;;;;;;;8.70;3.65;;;;;;;;;;5009662;28;20058;-63
2023/03/21 03:25:25;;;;;;;6.47;3.50;;;;;;;;;;5009631;28;20046;-63
2023/03/21 03:27:54;;;;;;;9.93;3.45;;;;;;;;;;5010052;28;20057;-63
2023/03/21 03:30:24;;;;;;;5.80;3.90;;;;;;;;;;5009369;28;20415;-63
2023/03/21 03:32:55;;;;;;;7.70;3.55;;;;;;;;;;5009927;28;20411;-62
2023/03/21 03:35:22;;;;;;;6.90;3.22;;;;;;;;;;5009696;28;20414;-63
2023/03/21 03:37:55;;;;;;;6.60;3.60;;;;;;;;;;5009333;28;20079;-63
2023/03/21 03:40:26;;;;;;;6.25;3.45;;;;;;;;;;5008953;28;20060;-63
2023/03/21 03:42:54;;;;;;;4.53;3.45;;;;;;;;;;5009311;28;20050;-63
2023/03/21 03:45:28;;;;;;;5.95;3.70;;;;;;;;;;5009034;28;20046;-63
2023/03/21 03:48:03;;;;;;;6.35;3.13;;;;;;;;;;5009353;28;20050;-63
2023/03/21 03:50:32;;;;;;;7.10;3.10;;;;;;;;;;5009167;28;20514;-63
2023/03/21 03:53:05;;;;;;;5.45;3.35;;;;;;;;;;5009501;28;20053;-63
2023/03/21 03:55:35;;;;;;;6.80;3.58;;;;;;;;;;5008927;28;20049;-62
2023/03/21 03:58:02;;;;;;;6.18;3.42;;;;;;;;;;5008615;28;20057;-63
2023/03/21 04:00:32;;;;;;;6.20;3.80;;;;;;;;;;5009158;28;20137;-63
2023/03/21 04:02:59;;;;;;;7.35;3.13;;;;;;;;;;5009027;28;20049;-63
2023/03/21 04:05:25;;;;;;;5.80;3.45;;;;;;;;;;5008754;28;20491;-63
2023/03/21 04:07:53;;;;;;;4.32;3.10;;;;;;;;;;5008744;28;20068;-63
2023/03/21 04:10:21;;;;;;;6.07;3.60;;;;;;;;;;5008500;28;20046;-63
2023/03/21 04:12:49;;;;;;;6.70;3.53;;;;;;;;;;5008823;28;20057;-63
2023/03/21 04:15:17;;;;;;;5.50;2.72;;;;;;;;;;5008732;28;20046;-63
2023/03/21 04:17:45;;;;;;;6.22;3.50;;;;;;;;;;5008371;28;20050;-63
2023/03/21 04:20:12;;;;;;;7.75;3.50;;;;;;;;;;5020772;23;20053;-65
2023/03/21 04:22:38;;;;;;;7.07;3.42;;;;;;;;;;5008512;28;20046;-65
2023/03/21 04:25:06;;;;;;;7.03;3.42;;;;;;;;;;5008920;28;20054;-66
2023/03/21 04:27:32;;;;;;;6.43;3.55;;;;;;;;;;5008967;28;20133;-66
2023/03/21 04:30:00;;;;;;;5.60;3.55;;;;;;;;;;5011688;28;20046;-65
2023/03/21 04:32:27;;;;;;;9.15;3.28;;;;;;;;;;5008690;28;20057;-66
2023/03/21 04:34:53;;;;;;;7.95;3.35;;;;;;;;;;5008640;28;20510;-65
2023/03/21 04:37:22;;;;;;;7.28;2.88;;;;;;;;;;5008444;28;20050;-66
2023/03/21 04:39:49;;;;;;;6.50;3.25;;;;;;;;;;5009088;28;20046;-65
2023/03/21 04:42:17;;;;;;;8.70;3.38;;;;;;;;;;5008656;28;20056;-66
2023/03/21 04:44:44;;;;;;;6.03;3.65;;;;;;;;;;5008737;28;20053;-65
2023/03/21 04:47:14;;;;;;;5.90;3.20;;;;;;;;;;5008161;28;20068;-65
2023/03/21 04:49:41;;;;;;;4.25;3.10;;;;;;;;;;5008464;28;20046;-65
2023/03/21 04:52:08;;;;;;;6.93;3.33;;;;;;;;;;5007857;28;20046;-65
2023/03/21 04:54:35;;;;;;;5.03;3.30;;;;;;;;;;5008422;28;20041;-65
2023/03/21 04:57:03;;;;;;;5.75;3.05;;;;;;;;;;5007723;28;20053;-65
2023/03/21 04:59:30;;;;;;;7.93;3.53;;;;;;;;;;5008361;28;20060;-65
2023/03/21 05:01:57;;;;;;;5.40;3.25;;;;;;;;;;5008026;28;20575;-65
2023/03/21 05:04:26;;;;;;;5.25;3.67;;;;;;;;;;5008076;28;20045;-65
2023/03/21 05:06:53;;;;;;;5.20;3.15;;;;;;;;;;5007806;28;20519;-65
2023/03/21 05:09:20;;;;;;;4.95;3.35;;;;;;;;;;5007918;28;20487;-64
2023/03/21 05:11:48;;;;;;;6.75;3.45;;;;;;;;;;5008199;28;20082;-64
2023/03/21 05:14:16;;;;;;;5.80;3.70;;;;;;;;;;5008022;28;20094;-66
2023/03/21 05:16:47;;;;;;;6.72;3.53;;;;;;;;;;5008445;28;20053;-65
2023/03/21 05:19:14;;;;;;;5.68;3.15;;;;;;;;;;5006623;28;20050;-66
2023/03/21 05:21:43;;;;;;;9.45;3.20;;;;;;;;;;5007896;28;20046;-65
2023/03/21 05:24:13;;;;;;;4.88;3.28;;;;;;;;;;5007774;28;20830;-66
2023/03/21 05:26:40;;;;;;;5.90;3.33;;;;;;;;;;5008053;28;20404;-65
2023/03/21 05:29:07;;;;;;;5.13;3.30;;;;;;;;;;5007334;28;20050;-66
2023/03/21 05:31:33;;;;;;;5.63;3.20;;;;;;;;;;5007771;28;20061;-64
2023/03/21 05:34:00;;;;;;;6.00;3.40;;;;;;;;;;5007287;28;20057;-64
2023/03/21 05:36:26;;;;;;;7.20;3.38;;;;;;;;;;5008089;28;20295;-65
2023/03/21 05:38:54;;;;;;;7.50;3.67;;;;;;;;;;5007253;28;20050;-65
2023/03/21 05:41:21;;;;;;;4.70;3.70;;;;;;;;;;5007425;28;20052;-66
2023/03/21 05:43:48;;;;;;;6.28;3.60;;;;;;;;;;5007483;28;20050;-65
2023/03/21 05:46:14;;;;;;;6.38;3.53;;;;;;;;;;5007682;28;20049;-65
2023/03/21 05:48:41;;;;;;;9.68;4.10;;;;;;;;;;5007703;28;20046;-65
2023/03/21 05:51:07;;;;;;;6.50;3.90;;;;;;;;;;5007798;28;20042;-65
2023/03/21 05:53:34;;;;;;;4.75;3.22;;;;;;;;;;5007482;28;20507;-65
2023/03/21 05:56:02;;;;;;;7.10;4.00;;;;;;;;;;5007659;28;20065;-66
2023/03/21 05:58:30;;;;;;;11.60;4.60;;;;;;;;;;5007283;28;20052;-65
2023/03/21 06:00:56;;;;;;;8.55;3.88;;;;;;;;;;5007124;28;20089;-65
2023/03/21 06:03:23;;;;;;;13.25;4.13;;;;;;;;;;5007637;28;20142;-66
2023/03/21 06:05:50;;;;;;;10.50;4.60;;;;;;;;;;5007557;28;20162;-65
2023/03/21 06:08:16;;;;;;;6.75;4.20;;;;;;;;;;5007187;28;20049;-65
2023/03/21 06:10:43;;;;;;;9.80;5.75;;;;;;;;;;5007292;28;20418;-64
2023/03/21 06:13:11;;;;;;;12.15;5.82;;;;;;;;;;5007203;28;20054;-66
2023/03/21 06:15:38;;;;;;;8.80;4.97;;;;;;;;;;5007438;28;20046;-65
2023/03/21 06:18:04;;;;;;;9.55;4.70;;;;;;;;;;5007518;28;20128;-65
2023/03/21 06:20:31;;;;;;;8.75;5.32;;;;;;;;;;5006982;28;20501;-65
2023/03/21 06:22:57;;;;;;;7.57;4.22;;;;;;;;;;5007269;28;20501;-65
2023/03/21 06:25:24;;;;;;;7.78;4.53;;;;;;;;;;5007010;28;20484;-65
2023/03/21 06:27:51;;;;;;;8.57;3.97;;;;;;;;;;5007051;28;20042;-65
2023/03/21 06:30:19;;;;;;;9.18;4.40;;;;;;;;;;5008053;28;20054;-64
2023/03/21 06:32:46;;;;;;;8.68;4.10;;;;;;;;;;5010607;28;20060;-65
2023/03/21 06:35:12;;;;;;;8.55;4.60;;;;;;;;;;5010224;28;20046;-65
2023/03/21 06:37:39;;;;;;;6.82;3.97;;;;;;;;;;5010360;28;20046;-66
2023/03/21 06:40:08;;;;;;;5.95;3.90;;;;;;;;;;5010160;28;20056;-65
2023/03/21 06:42:34;;;;;;;6.82;3.97;;;;;;;;;;5010376;28;20138;-64
2023/03/21 06:45:01;;;;;;;7.88;3.88;;;;;;;;;;5010639;28;20042;-65
2023/03/21 06:47:29;;;;;;;7.10;4.30;;;;;;;;;;5010246;28;20049;-65
2023/03/21 06:49:55;;;;;;;5.35;4.10;;;;;;;;;;5010377;28;20461;-64
2023/03/21 06:52:22;;;;;;;6.65;4.10;;;;;;;;;;5010601;28;20050;-64
2023/03/21 06:54:49;;;;;;;7.75;4.57;;;;;;;;;;5010438;28;20046;-65
2023/03/21 06:57:18;;;;;;;8.15;4.28;;;;;;;;;;5009487;28;20050;-65
2023/03/21 06:59:45;;;;;;;6.95;3.97;;;;;;;;;;5010300;28;20435;-65
2023/03/21 07:02:12;;;;;;;7.93;4.13;;;;;;;;;;5010184;28;20410;-65
2023/03/21 07:04:40;;;;;;;4.78;3.40;;;;;;;;;;5010170;28;20138;-64
2023/03/21 07:07:06;;;;;;;6.07;4.13;;;;;;;;;;5009566;28;20060;-65
2023/03/21 07:09:33;;;;;;;11.07;4.30;;;;;;;;;;5009546;28;20049;-65
2023/03/21 07:11:59;;;;;;;5.57;3.90;;;;;;;;;;5010266;28;20050;-65
2023/03/21 07:14:26;;;;;;;8.02;4.90;;;;;;;;;;5010205;28;20162;-66
2023/03/21 07:16:52;;;;;;;10.38;5.30;;;;;;;;;;5009939;28;20046;-65
2023/03/21 07:19:19;;;;;;;9.07;4.10;;;;;;;;;;5010160;28;20046;-65
2023/03/21 07:21:47;;;;;;;7.15;4.50;;;;;;;;;;5009802;28;20050;-65
2023/03/21 07:24:14;;;;;;;7.38;4.72;;;;;;;;;;5009479;28;20054;-64
2023/03/21 07:26:41;;;;;;;8.60;3.88;;;;;;;;;;5009750;28;20050;-65
2023/03/21 07:29:07;;;;;;;5.68;4.03;;;;;;;;;;5009670;28;20084;-65
2023/03/21 07:31:34;;;;;;;8.38;3.83;;;;;;;;;;5010114;28;20607;-65
2023/03/21 07:34:01;;;;;;;7.57;3.63;;;;;;;;;;5009742;28;20050;-65
2023/03/21 07:36:27;;;;;;;8.85;3.67;;;;;;;;;;5009860;28;20046;-65
2023/03/21 07:38:55;;;;;;;8.63;4.00;;;;;;;;;;5008889;28;20054;-65
2023/03/21 07:41:22;;;;;;;7.70;4.25;;;;;;;;;;5008931;28;20049;-65
2023/03/21 07:43:48;;;;;;;7.35;3.95;;;;;;;;;;5009056;28;20052;-65
2023/03/21 07:46:15;;;;;;;9.43;4.45;;;;;;;;;;5009619;28;20046;-65
2023/03/21 07:48:42;;;;;;;7.55;3.92;;;;;;;;;;5009166;28;20142;-65
2023/03/21 07:51:08;;;;;;;8.95;4.88;;;;;;;;;;5009572;28;20050;-64
2023/03/21 07:53:35;;;;;;;8.70;3.70;;;;;;;;;;5009036;28;20050;-66
2023/03/21 07:56:03;;;;;;;6.53;4.07;;;;;;;;;;5009831;28;20384;-65
2023/03/21 07:58:30;;;;;;;7.30;3.80;;;;;;;;;;5008938;28;20141;-66
2023/03/21 08:00:58;;;;;;;5.85;3.95;;;;;;;;;;5009773;28;20049;-65
2023/03/21 08:03:28;;;;;;;7.32;4.32;;;;;;;;;;5008924;28;20050;-65
2023/03/21 08:05:54;;;;;;;6.28;3.95;;;;;;;;;;5009318;28;20046;-64
2023/03/21 08:08:21;;;;;;;5.72;3.38;;;;;;;;;;5008892;28;20052;-65
2023/03/21 08:10:48;;;;;;;8.57;4.35;;;;;;;;;;5009564;28;20042;-64
2023/03/21 08:13:16;;;;;;;7.40;3.95;;;;;;;;;;5008831;28;20050;-65
2023/03/21 08:15:43;;;;;;;7.45;3.88;;;;;;;;;;5009079;28;20057;-64
2023/03/21 08:18:10;;;;;;;9.45;3.83;;;;;;;;;;5008364;28;20064;-65
2023/03/21 08:20:37;;;;;;;5.95;3.60;;;;;;;;;;5009003;28;20435;-68
2023/03/21 08:23:03;;;;;;;8.90;4.57;;;;;;;;;;5009700;28;20045;-67
2023/03/21 08:25:31;;;;;;;9.98;4.10;;;;;;;;;;5009622;28;20414;-68
2023/03/21 08:27:57;;;;;;;8.18;4.40;;;;;;;;;;5009196;28;20053;-68
2023/03/21 08:30:27;;;;;;;8.52;4.50;;;;;;;;;;5009175;28;20050;-68
2023/03/21 08:32:57;;;;;;;8.30;4.90;;;;;;;;;;5009290;28;20050;-69
2023/03/21 08:35:24;;;;;;;8.38;4.18;;;;;;;;;;5009100;28;20050;-69
2023/03/21 08:37:51;;;;;;;6.13;3.72;;;;;;;;;;5009044;28;20053;-69
2023/03/21 08:40:18;;;;;;;7.07;3.50;;;;;;;;;;5008810;28;20061;-69
2023/03/21 08:42:45;;;;;;;8.45;3.60;;;;;;;;;;5009494;28;20477;-68
2023/03/21 08:45:13;;;;;;;7.65;3.83;;;;;;;;;;5009135;28;20046;-69
2023/03/21 08:47:41;;;;;;;6.30;3.75;;;;;;;;;;5009109;28;20046;-69
2023/03/21 08:50:13;;;;;;;13.32;4.28;;;;;;;;;;5008865;28;20145;-69
2023/03/21 08:52:39;;;;;;;10.00;4.13;;;;;;;;;;5008030;28;20050;-69
2023/03/21 08:55:07;;;;;;;7.43;3.40;;;;;;;;;;5008630;28;20045;-68
2023/03/21 08:57:33;;;;;;;9.02;3.60;;;;;;;;;;5008994;28;20461;-68
2023/03/21 09:00:00;;;;;;;6.45;3.90;;;;;;;;;;5008869;28;20042;-68
2023/03/21 09:02:26;;;;;;;6.30;3.47;;;;;;;;;;5009284;28;20042;-67
2023/03/21 09:04:57;;;;;;;10.13;4.05;;;;;;;;;;5009028;28;20050;-68
2023/03/21 09:07:25;;;;;;;8.15;4.20;;;;;;;;;;5009125;28;20129;-68
2023/03/21 09:09:52;;;;;;;7.97;4.13;;;;;;;;;;5008642;28;20068;-68
2023/03/21 09:12:19;;;;;;;7.88;4.30;;;;;;;;;;5008932;28;20499;-68
2023/03/21 09:14:45;;;;;;;11.25;4.30;;;;;;;;;;5008959;28;20498;-68
2023/03/21 09:17:12;;;;;;;8.65;5.30;;;;;;;;;;5008812;28;20422;-68
2023/03/21 09:19:39;;;;;;;6.93;4.38;;;;;;;;;;5008465;28;20048;-68
2023/03/21 09:22:09;;;;;;;8.75;4.10;;;;;;;;;;5008536;28;20149;-68
2023/03/21 09:24:36;;;;;;;9.27;4.55;;;;;;;;;;5008661;28;20059;-68
2023/03/21 09:27:03;;;;;;;6.88;4.63;;;;;;;;;;5005506;28;20480;-68
2023/03/21 09:29:31;;;;;;;6.22;4.47;;;;;;;;;;5008451;28;20046;-70
2023/03/21 09:31:58;;;;;;;8.00;4.85;;;;;;;;;;5008307;28;20046;-68
2023/03/21 09:34:25;;;;;;;8.02;4.60;;;;;;;;;;5008438;28;20452;-68
2023/03/21 09:36:53;;;;;;;8.00;4.35;;;;;;;;;;5008197;28;20046;-67
2023/03/21 09:39:21;;;;;;;6.47;3.95;;;;;;;;;;5007140;28;20046;-68
2023/03/21 09:42:07;;;;;;;8.95;4.15;;;;;;;;;;5008196;28;20571;-68
2023/03/21 09:44:47;;;;;;;8.77;4.75;;;;;;;;;;5008368;28;20102;-68
2023/03/21 09:47:21;;;;;;;8.98;4.68;;;;;;;;;;5008593;28;20046;-69
2023/03/21 09:49:52;;;;;;;8.35;4.15;;;;;;;;;;5008222;28;20137;-69
2023/03/21 09:52:22;;;;;;;7.45;4.22;;;;;;;;;;5008046;28;20423;-69
2023/03/21 09:54:51;;;;;;;7.13;4.43;;;;;;;;;;5007962;28;20045;-68
2023/03/21 09:57:27;;;;;;;6.18;3.80;;;;;;;;;;5007846;28;20049;-69
2023/03/21 09:59:56;;;;;;;9.18;4.90;;;;;;;;;;5008398;28;20050;-69
2023/03/21 10:02:37;;;;;;;10.70;4.95;;;;;;;;;;5007908;28;20049;-68
2023/03/21 10:05:11;;;;;;;8.48;4.47;;;;;;;;;;4995292;28;20540;-69
2023/03/21 10:07:43;;;;;;;8.18;4.30;;;;;;;;;;4992161;28;20370;-69
2023/03/21 10:10:17;;;;;;;11.10;4.70;;;;;;;;;;5007520;28;20053;-69
2023/03/21 10:12:45;;;;;;;9.73;4.90;;;;;;;;;;5012030;28;20046;-68
2023/03/21 10:15:16;;;;;;;9.52;5.68;;;;;;;;;;5011599;28;20080;-69
2023/03/21 10:17:47;;;;;;;9.57;4.93;;;;;;;;;;5011275;28;20046;-69
2023/03/21 10:20:16;;;;;;;11.57;4.65;;;;;;;;;;4998385;22;20047;-66
2023/03/21 10:22:44;;;;;;;9.43;4.65;;;;;;;;;;4971477;28;20054;-63
2023/03/21 10:25:16;;;;;;;7.85;4.80;;;;;;;;;;4971024;28;20046;-67
2023/03/21 10:27:43;;;;;;;12.60;5.15;;;;;;;;;;4971118;28;20054;-66
2023/03/21 10:30:29;;;;;;;10.75;5.20;;;;;;;;;;4971092;28;20051;-64
2023/03/21 10:32:58;;;;;;;10.82;5.20;;;;;;;;;;4971514;28;20074;-64
2023/03/21 10:35:25;;;;;;;9.90;5.57;;;;;;;;;;4971239;28;20047;-64
2023/03/21 10:37:51;;;;;;;9.73;4.95;;;;;;;;;;4970981;28;20116;-67
2023/03/21 10:40:20;;;;;;;10.77;4.82;;;;;;;;;;4970788;28;20043;-63
2023/03/21 10:42:46;;;;;;;11.55;4.95;;;;;;;;;;4971313;28;20054;-64
2023/03/21 10:45:17;;;;;;;8.30;4.50;;;;;;;;;;4970838;28;20407;-64
2023/03/21 10:47:47;;;;;;;7.53;4.50;;;;;;;;;;4970838;28;20133;-65
2023/03/21 10:50:19;;;;;;;9.07;4.40;;;;;;;;;;4965453;28;20484;-65
2023/03/21 10:52:49;;;;;;;9.38;4.70;;;;;;;;;;4971044;28;20487;-64
2023/03/21 10:55:23;;;;;;;8.38;4.68;;;;;;;;;;4970699;28;20051;-64
2023/03/21 10:57:57;;;;;;;11.18;5.10;;;;;;;;;;4970884;28;20054;-64
2023/03/21 11:00:28;;;;;;;8.32;4.88;;;;;;;;;;4970871;28;20499;-65
2023/03/21 11:02:55;;;;;;;7.40;4.30;;;;;;;;;;4970982;28;20137;-64
2023/03/21 11:05:25;;;;;;;8.27;4.90;;;;;;;;;;4970916;28;20055;-64
2023/03/21 11:08:01;;;;;;;7.82;4.25;;;;;;;;;;4970735;28;20049;-63
2023/03/21 11:10:32;;;;;;;8.07;4.43;;;;;;;;;;4971052;28;20419;-64
2023/03/21 11:13:03;;;;;;;8.18;4.32;;;;;;;;;;4970288;28;20057;-64
2023/03/21 11:15:32;;;;;;;7.18;4.28;;;;;;;;;;4970203;28;20054;-63
2023/03/21 11:18:00;;;;;;;6.38;4.07;;;;;;;;;;4971148;28;20049;-64
2023/03/21 11:20:30;;;;;;;7.97;4.38;;;;;;;;;;4965874;28;20050;-64
2023/03/21 11:22:57;;;;;;;8.27;3.97;;;;;;;;;;4970134;28;20058;-64
2023/03/21 11:25:31;;;;;;;8.52;4.22;;;;;;;;;;4970448;28;20062;-64
2023/03/21 11:28:05;;;;;;;11.98;4.53;;;;;;;;;;4969936;28;20047;-61
2023/03/21 11:30:32;;;;;;;8.00;4.63;;;;;;;;;;4970189;28;20043;-64
2023/03/21 11:33:02;;;;;;;7.70;4.28;;;;;;;;;;4970157;28;20055;-64
2023/03/21 11:35:33;;;;;;;6.93;4.32;;;;;;;;;;4970468;28;20055;-64
2023/03/21 11:38:00;;;;;;;9.50;4.47;;;;;;;;;;4970089;28;20412;-62
2023/03/21 11:40:29;;;;;;;7.13;4.30;;;;;;;;;;4961420;28;20059;-64
2023/03/21 11:42:57;;;;;;;8.93;4.22;;;;;;;;;;4950798;28;20126;-64
2023/03/21 11:45:26;;;;;;;7.93;4.97;;;;;;;;;;4967679;28;20415;-64
2023/03/21 11:47:55;;;;;;;6.97;4.75;;;;;;;;;;4970027;28;20522;-64
2023/03/21 11:50:27;;;;;;;8.63;4.60;;;;;;;;;;4970103;28;20058;-64
2023/03/21 11:53:07;;;;;;;7.80;4.93;;;;;;;;;;4970042;28;20047;-64
2023/03/21 11:55:45;;;;;;;8.98;4.55;;;;;;;;;;4969764;28;20055;-64
2023/03/21 11:58:27;;;;;;;10.77;4.95;;;;;;;;;;4969855;28;20078;-64
2023/03/21 12:01:03;;;;;;;10.40;5.28;;;;;;;;;;4970034;28;20054;-65
2023/03/21 12:04:02;;;;;;;9.65;5.43;;;;;;;;;;4968925;28;20054;-64
2023/03/21 12:06:35;;;;;;;12.25;5.18;;;;;;;;;;4970283;28;20421;-67
2023/03/21 12:09:26;;;;;;;8.38;4.53;;;;;;;;;;4969941;28;20096;-64
2023/03/21 12:12:03;;;;;;;6.40;3.67;;;;;;;;;;4970127;28;20051;-64
2023/03/21 12:14:42;;;;;;;8.65;4.30;;;;;;;;;;4967800;28;20051;-64
2023/03/21 12:17:21;;;;;;;8.80;4.35;;;;;;;;;;4969670;28;20133;-64
2023/03/21 12:20:16;;;;;;;9.73;4.13;;;;;;;;;;4969545;28;20051;-64
2023/03/21 12:22:56;;;;;;;7.63;4.55;;;;;;;;;;4971639;28;20507;-64
2023/03/21 12:25:27;;;;;;;10.85;4.65;;;;;;;;;;4969665;28;20051;-64
2023/03/21 12:28:07;;;;;;;10.13;3.90;;;;;;;;;;4969589;28;20054;-64
2023/03/21 12:30:50;;;;;;;6.68;4.05;;;;;;;;;;4969121;28;20057;-64
2023/03/21 12:33:36;;;;;;;5.85;3.65;;;;;;;;;;4969827;28;20481;-64
2023/03/21 12:36:21;;;;;;;3.28;2.08;;;;;;;;;;4950151;28;20519;-64
2023/03/21 12:38:55;;;;;;;5.05;2.60;;;;;;;;;;4949791;28;20051;-64
2023/03/21 12:41:28;;;;;;;5.00;3.20;;;;;;;;;;4950288;28;20386;-64
2023/03/21 12:44:00;;;;;;;4.55;2.53;;;;;;;;;;4950080;29;20065;-64
2023/03/21 12:46:32;;;;;;;6.55;3.35;;;;;;;;;;4949867;28;20052;-64
2023/03/21 12:49:02;;;;;;;;;;;;;;;;;;4950375;28;20060;-64
2023/03/21 12:51:31;;;;;;;5.18;2.65;;;;;;;;;;4950106;29;19927;-64
2023/03/21 12:54:07;;;;;;;3.65;2.70;;;;;;;;;;4949057;28;20055;-66
2023/03/21 12:56:38;;;;;;;4.15;2.60;;;;;;;;;;4948928;28;20051;-64
2023/03/21 12:59:14;;;;;;;5.30;2.70;;;;;;;;;;4948189;28;20519;-64
2023/03/21 13:01:43;;;;;;;4.53;2.72;;;;;;;;;;4949665;28;20408;-64
2023/03/21 13:04:31;;;;;;;4.20;3.10;;;;;;;;;;4949624;28;20048;-64
2023/03/21 13:07:00;;;;;;;8.98;3.55;;;;;;;;;;4953267;28;20053;-64
2023/03/21 13:09:31;;;;;;;7.75;4.20;;;;;;;;;;4967703;28;20047;-64
2023/03/21 13:12:06;;;;;;;5.05;3.45;;;;;;;;;;4966949;28;20057;-65
2023/03/21 13:14:38;;;;;;;5.22;3.35;;;;;;;;;;4967353;28;20058;-64
2023/03/21 13:17:10;;;;;;;5.47;3.45;;;;;;;;;;4968312;28;20042;-64
2023/03/21 13:19:45;;;;;;;4.45;3.40;;;;;;;;;;4968340;28;20047;-64
2023/03/21 13:22:21;;;;;;;4.57;2.85;;;;;;;;;;4968386;28;20053;-65
2023/03/21 13:24:50;;;;;;;4.95;2.80;;;;;;;;;;4967875;28;20061;-65
2023/03/21 13:27:24;;;;;;;5.28;3.42;;;;;;;;;;4968954;28;20047;-65
2023/03/21 13:29:52;;;;;;;5.65;3.33;;;;;;;;;;4968509;28;20389;-65
2023/03/21 13:32:25;;;;;;;4.88;3.45;;;;;;;;;;4968902;28;20495;-65
2023/03/21 13:34:58;;;;;;;6.10;4.00;;;;;;;;;;4964382;28;20047;-64
2023/03/21 13:37:29;;;;;;;7.40;3.90;;;;;;;;;;4968528;28;20077;-65
2023/03/21 13:40:00;;;;;;;7.15;3.95;;;;;;;;;;4967643;28;20097;-65
2023/03/21 13:42:32;;;;;;;7.03;3.67;;;;;;;;;;4968785;28;20458;-65
2023/03/21 13:45:01;;;;;;;5.05;3.40;;;;;;;;;;4968250;28;20470;-65
2023/03/21 13:47:40;;;;;;;4.63;3.80;;;;;;;;;;4967769;28;20047;-64
2023/03/21 13:50:36;;;;;;;7.20;4.10;;;;;;;;;;4968422;28;20505;-65
2023/03/21 13:53:30;;;;;;;6.38;4.28;;;;;;;;;;4967968;28;20046;-65
2023/03/21 13:56:23;;;;;;;5.47;4.15;;;;;;;;;;4952736;28;20051;-64
2023/03/21 13:58:51;;;;;;;;;;;;;;;;;;4950980;28;20484;-65
2023/03/21 14:01:34;;;;;;;7.35;4.75;;;;;;;;;;4948926;29;20388;-64
2023/03/21 14:04:04;;;;;;;;;;;;;;;;;;4954097;28;20055;-65
2023/03/21 14:06:37;;;;;;;6.70;4.38;;;;;;;;;;4966918;28;20381;-64
2023/03/21 14:09:05;;;;;;;7.00;4.40;;;;;;;;;;4967491;28;20053;-65
2023/03/21 14:11:33;;;;;;;6.68;3.88;;;;;;;;;;4968271;28;20051;-64
2023/03/21 14:14:00;;;;;;;5.40;4.15;;;;;;;;;;4967983;28;20413;-65
2023/03/21 14:16:28;;;;;;;7.68;4.28;;;;;;;;;;4968203;28;20047;-65
2023/03/21 14:18:57;;;;;;;7.40;4.20;;;;;;;;;;4967161;28;20108;-65
2023/03/21 14:21:25;;;;;;;5.60;4.07;;;;;;;;;;4968179;28;20047;-65
2023/03/21 14:24:03;;;;;;;9.60;4.82;;;;;;;;;;4967791;28;20054;-64
2023/03/21 14:26:32;;;;;;;6.03;4.57;;;;;;;;;;4968392;28;20047;-64
2023/03/21 14:29:02;;;;;;;6.00;4.30;;;;;;;;;;4967484;28;20043;-65
2023/03/21 14:31:29;;;;;;;6.45;4.25;;;;;;;;;;4968136;28;20054;-65
2023/03/21 14:33:57;;;;;;;4.95;4.10;;;;;;;;;;4965942;28;20051;-64
2023/03/21 14:36:28;;;;;;;6.95;4.70;;;;;;;;;;4966298;28;20076;-65
2023/03/21 14:38:58;;;;;;;7.55;4.60;;;;;;;;;;4968152;28;20523;-64
2023/03/21 14:41:29;;;;;;;6.50;4.82;;;;;;;;;;4967530;28;20112;-65
2023/03/21 14:44:24;;;;;;;6.68;4.13;;;;;;;;;;4967524;28;20054;-64
2023/03/21 14:46:52;;;;;;;11.32;5.50;;;;;;;;;;4968310;28;20051;-65
2023/03/21 14:49:21;;;;;;;7.13;4.88;;;;;;;;;;4967574;28;20058;-65
2023/03/21 14:51:50;;;;;;;7.72;4.55;;;;;;;;;;4969328;28;20047;-64
2023/03/21 14:54:18;;;;;;;7.53;5.75;;;;;;;;;;4970565;28;20422;-64
2023/03/21 14:56:50;;;;;;;9.55;5.43;;;;;;;;;;4970790;28;20046;-65
2023/03/21 14:59:19;;;;;;;5.95;4.35;;;;;;;;;;4970876;28;20053;-64
2023/03/21 15:01:47;;;;;;;6.72;4.43;;;;;;;;;;4970816;28;20057;-65
2023/03/21 15:04:16;;;;;;;6.80;4.65;;;;;;;;;;4967572;28;20055;-65